Time;durP1;ratioP1;P1;durP2;ratioP2;P2;SDS_P1;SDS_P2;PMS_P1;PMS_P2;Temp;Humidity;BMP_temperature;BMP_pressure;BME280_temperature;BME280_humidity;BME280_pressure;Samples;Min_cycle;Max_cycle;Signal;HPM_P1;HPM_P2
2022/09/04 06:01:53;;;;;;;;;2.67;2.67;;;;;;;;5408677;22;46127;-66
2022/09/04 06:04:18;;;;;;;;;2.00;2.00;;;;;;;;4993003;28;45796;-67
2022/09/04 06:06:55;;;;;;;;;5.00;2.00;;;;;;;;4995323;28;45459;-66
2022/09/04 06:09:32;;;;;;;;;2.67;2.00;;;;;;;;4998994;28;45424;-66
2022/09/04 06:11:57;;;;;;;;;3.33;3.33;;;;;;;;5001081;28;46297;-64
2022/09/04 06:14:35;;;;;;;;;4.33;2.67;;;;;;;;5006665;28;45272;-66
2022/09/04 06:17:06;;;;;;;;;3.33;1.33;;;;;;;;5002104;28;45509;-66
2022/09/04 06:19:50;;;;;;;;;0.00;0.00;;;;;;;;5000656;28;45475;-67
2022/09/04 06:22:31;;;;;;;;;1.67;1.67;;;;;;;;5003613;28;45815;-66
2022/09/04 06:25:14;;;;;;;;;2.00;2.00;;;;;;;;5007558;28;45494;-66
2022/09/04 06:27:58;;;;;;;;;2.33;2.33;;;;;;;;5006141;28;45693;-67
2022/09/04 06:30:25;;;;;;;;;3.00;3.00;;;;;;;;4996316;28;45864;-65
2022/09/04 06:33:00;;;;;;;;;2.67;2.67;;;;;;;;5000980;28;45404;-66
2022/09/04 06:35:26;;;;;;;;;2.67;2.67;;;;;;;;5009717;28;45640;-65
2022/09/04 06:38:13;;;;;;;;;3.00;3.00;;;;;;;;4998356;28;45758;-64
2022/09/04 06:40:38;;;;;;;;;3.00;3.00;;;;;;;;4995460;28;45279;-66
2022/09/04 06:43:06;;;;;;;;;1.33;1.33;;;;;;;;5005856;28;46303;-68
2022/09/04 06:45:43;;;;;;;;;3.00;3.00;;;;;;;;5000739;28;45285;-65
2022/09/04 06:48:08;;;;;;;;;3.00;3.00;;;;;;;;4998645;28;45404;-65
2022/09/04 06:50:42;;;;;;;;;0.33;0.33;;;;;;;;5009380;28;45339;-65
2022/09/04 06:53:14;;;;;;;;;2.25;2.25;;;;;;;;5014771;28;46233;-65
2022/09/04 06:55:52;;;;;;;;;2.25;2.25;;;;;;;;4997259;28;45301;-65
2022/09/04 06:58:36;;;;;;;;;3.25;2.25;;;;;;;;4994495;28;45467;-66
2022/09/04 07:01:07;;;;;;;;;3.00;3.00;;;;;;;;4991215;28;45224;-65
2022/09/04 07:03:41;;;;;;;;;3.00;3.00;;;;;;;;4999436;28;45853;-65
2022/09/04 07:06:25;;;;;;;;;4.00;4.00;;;;;;;;4999057;28;45380;-65
2022/09/04 07:09:08;;;;;;;;;2.00;2.00;;;;;;;;5002226;28;45504;-65
2022/09/04 07:11:52;;;;;;;;;2.50;2.00;;;;;;;;4997543;28;45788;-65
2022/09/04 07:14:40;;;;;;;;;2.00;2.00;;;;;;;;5004017;28;45862;-65
2022/09/04 07:17:13;;;;;;;;;2.75;2.75;;;;;;;;5003003;28;45381;-64
2022/09/04 07:19:49;;;;;;;;;0.00;0.00;;;;;;;;4996827;28;45235;-64
2022/09/04 07:22:26;;;;;;;;;3.00;3.00;;;;;;;;5001705;28;45431;-65
2022/09/04 07:25:12;;;;;;;;;1.25;1.25;;;;;;;;4998076;28;45491;-64
2022/09/04 07:27:40;;;;;;;;;3.00;3.00;;;;;;;;5002221;28;45568;-65
2022/09/04 07:30:07;;;;;;;;;2.75;2.75;;;;;;;;5003748;28;45583;-66
2022/09/04 07:32:37;;;;;;;;;1.00;1.00;;;;;;;;5003810;28;45484;-65
2022/09/04 07:35:18;;;;;;;;;1.75;1.75;;;;;;;;5002942;28;47355;-65
2022/09/04 07:37:57;;;;;;;;;2.50;2.50;;;;;;;;4997653;28;45538;-65
2022/09/04 07:40:43;;;;;;;;;5.25;2.00;;;;;;;;5004262;28;45458;-65
2022/09/04 07:43:11;;;;;;;;;2.00;1.50;;;;;;;;5003039;28;45392;-66
2022/09/04 07:45:50;;;;;;;;;2.00;2.00;;;;;;;;4998731;28;45296;-65
2022/09/04 07:48:23;;;;;;;;;3.00;2.00;;;;;;;;5000507;28;45576;-66
2022/09/04 07:51:03;;;;;;;;;1.25;1.25;;;;;;;;5001182;28;45427;-65
2022/09/04 07:53:31;;;;;;;;;4.25;3.25;;;;;;;;4995919;28;45902;-65
2022/09/04 07:55:59;;;;;;;;;2.50;2.25;;;;;;;;4993539;28;45454;-66
2022/09/04 07:58:48;;;;;;;;;2.00;2.00;;;;;;;;4991287;28;45549;-65
2022/09/04 08:01:13;;;;;;;;;2.00;2.00;;;;;;;;4993458;28;45467;-65
2022/09/04 08:03:51;;;;;;;;;5.00;3.33;;;;;;;;4997818;28;45321;-65
2022/09/04 08:06:20;;;;;;;;;1.25;1.25;;;;;;;;4992984;28;47102;-67
2022/09/04 08:08:48;;;;;;;;;3.00;3.00;;;;;;;;4996252;28;45709;-65
2022/09/04 08:11:21;;;;;;;;;2.33;2.33;;;;;;;;4996093;28;45637;-65
2022/09/04 08:13:46;;;;;;;;;2.00;2.00;;;;;;;;4997199;28;45950;-65
2022/09/04 08:16:34;;;;;;;;;4.00;3.00;;;;;;;;5007456;28;45752;-65
2022/09/04 08:19:08;;;;;;;;;3.67;2.00;;;;;;;;4996060;28;45427;-65
2022/09/04 08:21:33;;;;;;;;;4.33;4.00;;;;;;;;4988971;28;45420;-66
2022/09/04 08:24:04;;;;;;;;;3.67;3.00;;;;;;;;4996948;28;45448;-66
2022/09/04 08:26:39;;;;;;;;;3.00;3.00;;;;;;;;5003117;28;45442;-66
2022/09/04 08:29:23;;;;;;;;;2.00;2.00;;;;;;;;5005390;28;45451;-66
2022/09/04 08:32:03;;;;;;;;;4.00;2.25;;;;;;;;5002488;28;45493;-66
2022/09/04 08:34:37;;;;;;;;;2.00;2.00;;;;;;;;5008317;28;45683;-66
2022/09/04 08:37:06;;;;;;;;;4.00;2.00;;;;;;;;5000185;28;45891;-66
2022/09/04 08:39:53;;;;;;;;;4.00;3.00;;;;;;;;5004157;28;45899;-65
2022/09/04 08:42:25;;;;;;;;;2.00;2.00;;;;;;;;5005838;28;45316;-65
2022/09/04 08:45:09;;;;;;;;;2.67;2.67;;;;;;;;5007646;28;45553;-65
2022/09/04 08:47:52;;;;;;;;;4.33;3.00;;;;;;;;5009146;28;45392;-67
2022/09/04 08:50:33;;;;;;;;;3.00;3.00;;;;;;;;4999355;28;45377;-66
2022/09/04 08:53:07;;;;;;;;;2.00;1.00;;;;;;;;5000654;28;45476;-63
2022/09/04 08:55:35;;;;;;;;;1.00;1.00;;;;;;;;5010445;28;45294;-64
2022/09/04 08:58:04;;;;;;;;;2.00;2.00;;;;;;;;4995626;28;45377;-65
2022/09/04 09:00:36;;;;;;;;;2.00;2.00;;;;;;;;4999153;28;45796;-65
2022/09/04 09:03:05;;;;;;;;;0.00;0.00;;;;;;;;5000373;28;45302;-66
2022/09/04 09:05:36;;;;;;;;;2.75;2.00;;;;;;;;5000421;28;45435;-66
2022/09/04 09:08:19;;;;;;;;;1.25;1.25;;;;;;;;5000558;28;46219;-65
2022/09/04 09:11:02;;;;;;;;;1.75;1.50;;;;;;;;5002033;28;45379;-66
2022/09/04 09:13:33;;;;;;;;;1.50;1.50;;;;;;;;5007204;28;45462;-65
2022/09/04 09:16:17;;;;;;;;;1.75;1.75;;;;;;;;5005264;28;45438;-66
2022/09/04 09:18:48;;;;;;;;;2.00;2.00;;;;;;;;5003461;28;45343;-65
2022/09/04 09:21:27;;;;;;;;;0.25;0.25;;;;;;;;5012119;28;45340;-65
2022/09/04 09:24:13;;;;;;;;;2.00;1.25;;;;;;;;5000996;28;45334;-65
2022/09/04 09:26:52;;;;;;;;;0.50;0.50;;;;;;;;5007908;28;45443;-66
2022/09/04 09:29:23;;;;;;;;;0.50;0.50;;;;;;;;5008502;28;45372;-65
2022/09/04 09:31:51;;;;;;;;;0.00;0.00;;;;;;;;5014283;28;45703;-66
2022/09/04 09:34:36;;;;;;;;;0.50;0.50;;;;;;;;5002358;28;45411;-65
2022/09/04 09:37:01;;;;;;;;;2.00;2.00;;;;;;;;5001657;28;45487;-62
2022/09/04 09:39:37;;;;;;;;;1.25;1.25;;;;;;;;5004272;28;45306;-62
2022/09/04 09:42:14;;;;;;;;;0.75;0.75;;;;;;;;5000130;28;45931;-62
2022/09/04 09:44:41;;;;;;;;;0.25;0.25;;;;;;;;4999650;28;45288;-62
2022/09/04 09:47:25;;;;;;;;;2.00;2.00;;;;;;;;4999931;28;45384;-63
2022/09/04 09:50:09;;;;;;;;;3.75;2.75;;;;;;;;4998551;28;47046;-62
2022/09/04 09:52:53;;;;;;;;;0.00;0.00;;;;;;;;4993955;28;45422;-62
2022/09/04 09:55:24;;;;;;;;;2.50;2.50;;;;;;;;4996630;28;45499;-63
2022/09/04 09:58:01;;;;;;;;;0.00;0.00;;;;;;;;4999778;28;45367;-62
2022/09/04 10:00:46;;;;;;;;;2.75;2.75;;;;;;;;4998717;28;48231;-63
2022/09/04 10:03:23;;;;;;;;;0.00;0.00;;;;;;;;4998119;28;45429;-63
2022/09/04 10:05:54;;;;;;;;;0.00;0.00;;;;;;;;4998548;28;45494;-63
2022/09/04 10:08:38;;;;;;;;;2.00;2.00;;;;;;;;4998638;28;45520;-62
2022/09/04 10:11:12;;;;;;;;;2.00;0.50;;;;;;;;5000073;28;46225;-62
2022/09/04 10:13:49;;;;;;;;;2.00;2.00;;;;;;;;5002147;28;45782;-63
2022/09/04 10:16:26;;;;;;;;;1.00;1.00;;;;;;;;4996000;28;45519;-63
2022/09/04 10:18:51;;;;;;;;;1.00;1.00;;;;;;;;4989678;28;45352;-62
2022/09/04 10:21:35;;;;;;;;;0.00;0.00;;;;;;;;5000371;28;45457;-63
2022/09/04 10:24:04;;;;;;;;;0.75;0.75;;;;;;;;5000161;28;45451;-63
2022/09/04 10:26:29;;;;;;;;;1.00;1.00;;;;;;;;4999088;28;45376;-63
2022/09/04 10:29:09;;;;;;;;;0.75;0.00;;;;;;;;4998387;28;45235;-62
2022/09/04 10:31:44;;;;;;;;;2.00;2.00;;;;;;;;5000883;28;45407;-62
2022/09/04 10:34:15;;;;;;;;;2.00;2.00;;;;;;;;4998961;28;45726;-62
2022/09/04 10:36:40;;;;;;;;;0.00;0.00;;;;;;;;4992962;28;45583;-63
2022/09/04 10:42:03;;;;;;;;;0.00;0.00;;;;;;;;4997637;28;45628;-62
2022/09/04 10:44:37;;;;;;;;;1.00;1.00;;;;;;;;4995593;28;45700;-62
2022/09/04 10:47:23;;;;;;;;;1.25;0.00;;;;;;;;4992259;28;46039;-62
2022/09/04 10:49:48;;;;;;;;;1.25;0.75;;;;;;;;4985664;28;45746;-62
2022/09/04 10:52:31;;;;;;;;;0.80;0.80;;;;;;;;4996352;28;46309;-62
2022/09/04 10:55:01;;;;;;;;;2.50;2.50;;;;;;;;5001716;28;45400;-62
2022/09/04 10:57:27;;;;;;;;;2.00;2.00;;;;;;;;4999639;28;45384;-62
2022/09/04 11:00:07;;;;;;;;;2.75;1.25;;;;;;;;4993251;28;45732;-62
2022/09/04 11:03:09;;;;;;;;;2.00;2.00;;;;;;;;4996100;28;46164;-62
2022/09/04 11:05:40;;;;;;;;;2.00;1.00;;;;;;;;4937072;28;45884;-62
2022/09/04 11:08:11;;;;;;;;;3.00;1.50;;;;;;;;4985301;28;45461;-62
2022/09/04 11:10:55;;;;;;;;;0.50;0.50;;;;;;;;4997110;28;45458;-62
2022/09/04 11:13:29;;;;;;;;;1.75;1.75;;;;;;;;4990230;28;45999;-62
2022/09/04 11:16:21;;;;;;;;;1.75;1.75;;;;;;;;4992744;28;45461;-62
2022/09/04 11:18:54;;;;;;;;;0.25;0.25;;;;;;;;4996677;28;45573;-63
2022/09/04 11:21:26;;;;;;;;;1.25;1.00;;;;;;;;4997346;28;46927;-63
2022/09/04 11:23:57;;;;;;;;;1.00;1.00;;;;;;;;4990728;28;45380;-63
2022/09/04 11:26:32;;;;;;;;;0.00;0.00;;;;;;;;4995920;28;45502;-62
2022/09/04 11:29:03;;;;;;;;;1.00;1.00;;;;;;;;4997202;28;45655;-63
2022/09/04 11:31:32;;;;;;;;;2.50;2.50;;;;;;;;5005783;28;45446;-63
2022/09/04 11:34:12;;;;;;;;;0.00;0.00;;;;;;;;5005094;28;45485;-62
2022/09/04 11:36:53;;;;;;;;;1.00;1.00;;;;;;;;5001631;28;45482;-62
2022/09/04 11:39:36;;;;;;;;;0.50;0.50;;;;;;;;4995947;28;45466;-62
2022/09/04 11:42:09;;;;;;;;;2.00;2.00;;;;;;;;5002009;28;45788;-63
2022/09/04 11:44:47;;;;;;;;;1.75;1.50;;;;;;;;4997081;28;45309;-63
2022/09/04 11:47:18;;;;;;;;;1.75;1.50;;;;;;;;4997569;28;45312;-63
2022/09/04 11:49:51;;;;;;;;;2.00;2.00;;;;;;;;4998269;28;45485;-63
2022/09/04 11:52:30;;;;;;;;;0.00;0.00;;;;;;;;5006125;28;45416;-63
2022/09/04 11:55:24;;;;;;;;;1.00;1.00;;;;;;;;5003651;28;46380;-63
2022/09/04 11:57:56;;;;;;;;;1.25;1.25;;;;;;;;4999373;28;45553;-63
2022/09/04 12:00:21;;;;;;;;;2.50;2.50;;;;;;;;5002537;28;45427;-62
2022/09/04 12:02:49;;;;;;;;;1.00;1.00;;;;;;;;5002209;28;45764;-62
2022/09/04 12:05:40;;;;;;;;;0.75;0.75;;;;;;;;5007482;28;45770;-62
2022/09/04 12:08:20;;;;;;;;;3.00;3.00;;;;;;;;5003632;28;45337;-62
2022/09/04 12:10:56;;;;;;;;;1.50;1.50;;;;;;;;5006043;28;45846;-62
2022/09/04 12:13:42;;;;;;;;;0.50;0.50;;;;;;;;5004305;28;45647;-63
2022/09/04 12:16:45;;;;;;;;;1.00;1.00;;;;;;;;5002697;28;47164;-63
2022/09/04 12:19:30;;;;;;;;;1.00;1.00;;;;;;;;4939284;28;45479;-63
2022/09/04 12:21:55;;;;;;;;;3.33;2.00;;;;;;;;5001105;28;46506;-62
2022/09/04 12:24:20;;;;;;;;;1.00;1.00;;;;;;;;4999383;28;45383;-63
2022/09/04 12:27:06;;;;;;;;;1.00;1.00;;;;;;;;5004175;28;45400;-62
2022/09/04 12:29:34;;;;;;;;;1.00;1.00;;;;;;;;5007439;28;45473;-62
2022/09/04 12:32:16;;;;;;;;;3.00;1.75;;;;;;;;5003129;28;45493;-62
2022/09/04 12:34:44;;;;;;;;;2.00;2.00;;;;;;;;5000821;28;45699;-62
2022/09/04 12:37:28;;;;;;;;;2.50;2.00;;;;;;;;5005334;28;46297;-62
2022/09/04 12:40:11;;;;;;;;;2.00;2.00;;;;;;;;5013092;28;45332;-62
2022/09/04 12:42:42;;;;;;;;;1.75;1.75;;;;;;;;5007127;28;45780;-63
2022/09/04 12:45:13;;;;;;;;;0.50;0.00;;;;;;;;5016283;28;45462;-63
2022/09/04 12:47:50;;;;;;;;;1.25;1.25;;;;;;;;5009260;28;46355;-62
2022/09/04 12:50:31;;;;;;;;;4.00;2.75;;;;;;;;4992643;28;45414;-63
2022/09/04 12:53:01;;;;;;;;;1.00;1.00;;;;;;;;5005506;28;45687;-63
2022/09/04 12:55:41;;;;;;;;;2.00;2.00;;;;;;;;4997380;28;45470;-63
2022/09/04 12:58:25;;;;;;;;;1.75;1.75;;;;;;;;5001692;28;46296;-62
2022/09/04 13:00:58;;;;;;;;;3.00;3.00;;;;;;;;4997933;28;45390;-63
2022/09/04 13:03:46;;;;;;;;;2.00;2.00;;;;;;;;5002076;28;45523;-63
2022/09/04 13:06:30;;;;;;;;;4.00;2.33;;;;;;;;5003729;28;45438;-62
2022/09/04 13:09:01;;;;;;;;;3.25;3.00;;;;;;;;4998603;28;46596;-64
2022/09/04 13:11:33;;;;;;;;;1.25;1.25;;;;;;;;4996670;28;45537;-62
2022/09/04 13:13:58;;;;;;;;;2.75;2.75;;;;;;;;4998573;28;45427;-63
2022/09/04 13:16:30;;;;;;;;;2.00;2.00;;;;;;;;5002330;28;45235;-62
2022/09/04 13:19:15;;;;;;;;;3.00;3.00;;;;;;;;4998410;28;45583;-63
2022/09/04 13:21:40;;;;;;;;;4.00;2.25;;;;;;;;5005034;28;45320;-63
2022/09/04 13:24:25;;;;;;;;;1.67;1.67;;;;;;;;5002539;28;45561;-63
2022/09/04 13:27:01;;;;;;;;;1.75;1.75;;;;;;;;5001220;28;45531;-63
2022/09/04 13:29:49;;;;;;;;;1.00;1.00;;;;;;;;4998117;28;45835;-62
2022/09/04 13:32:14;;;;;;;;;0.25;0.25;;;;;;;;4998490;28;45466;-62
2022/09/04 13:34:52;;;;;;;;;1.00;1.00;;;;;;;;4998532;28;45455;-63
2022/09/04 13:37:22;;;;;;;;;2.00;2.00;;;;;;;;4995427;28;45489;-62
2022/09/04 13:39:54;;;;;;;;;0.75;0.75;;;;;;;;4998338;28;46409;-62
2022/09/04 13:42:38;;;;;;;;;0.50;0.50;;;;;;;;5004474;28;45527;-63
2022/09/04 13:45:08;;;;;;;;;2.00;2.00;;;;;;;;4999289;28;45535;-64
2022/09/04 13:47:37;;;;;;;;;1.00;1.00;;;;;;;;5000091;28;45721;-63
2022/09/04 13:50:08;;;;;;;;;1.00;1.00;;;;;;;;4999716;28;46311;-63
2022/09/04 13:52:50;;;;;;;;;1.50;1.50;;;;;;;;4997323;28;45281;-61
2022/09/04 13:55:18;;;;;;;;;2.75;2.75;;;;;;;;4997433;28;45229;-62
2022/09/04 13:57:46;;;;;;;;;2.25;2.25;;;;;;;;4999375;28;45372;-62
2022/09/04 14:00:13;;;;;;;;;1.00;1.00;;;;;;;;4995926;28;45632;-62
2022/09/04 14:02:38;;;;;;;;;2.50;2.50;;;;;;;;4997723;28;45459;-62
2022/09/04 14:05:06;;;;;;;;;2.00;1.25;;;;;;;;4999288;28;45462;-62
2022/09/04 14:07:39;;;;;;;;;2.75;2.75;;;;;;;;4999084;28;45339;-62
2022/09/04 14:10:09;;;;;;;;;0.75;0.75;;;;;;;;4998428;28;47040;-62
2022/09/04 14:12:58;;;;;;;;;5.00;3.50;;;;;;;;4999067;28;45599;-62
2022/09/04 14:15:42;;;;;;;;;1.00;1.00;;;;;;;;4997825;28;45552;-62
2022/09/04 14:18:14;;;;;;;;;2.25;2.25;;;;;;;;4998083;28;45608;-62
2022/09/04 14:20:49;;;;;;;;;2.00;2.00;;;;;;;;4998480;28;45668;-62
2022/09/04 14:23:33;;;;;;;;;2.75;2.50;;;;;;;;4999724;28;45717;-61
2022/09/04 14:26:05;;;;;;;;;2.00;1.50;;;;;;;;4999267;28;45338;-63
2022/09/04 14:28:40;;;;;;;;;1.00;1.00;;;;;;;;4997928;28;45495;-63
2022/09/04 14:31:06;;;;;;;;;2.00;2.00;;;;;;;;4999301;28;46404;-63
2022/09/04 14:33:47;;;;;;;;;4.00;2.25;;;;;;;;4998233;28;45762;-63
2022/09/04 14:36:20;;;;;;;;;1.50;1.50;;;;;;;;4997000;28;45855;-62
2022/09/04 14:38:47;;;;;;;;;4.33;4.33;;;;;;;;4998929;28;46439;-63
2022/09/04 14:41:33;;;;;;;;;1.00;1.00;;;;;;;;4997083;28;46681;-62
2022/09/04 14:44:02;;;;;;;;;1.75;1.75;;;;;;;;4993993;28;45461;-63
2022/09/04 14:46:37;;;;;;;;;3.50;2.00;;;;;;;;4997686;28;45310;-62
2022/09/04 14:49:06;;;;;;;;;2.50;2.50;;;;;;;;4996631;28;45322;-61
2022/09/04 14:51:38;;;;;;;;;1.75;1.75;;;;;;;;5010819;28;46222;-62
2022/09/04 14:54:04;;;;;;;;;2.25;2.25;;;;;;;;5003004;28;45336;-63
2022/09/04 14:56:32;;;;;;;;;0.75;0.75;;;;;;;;4995886;28;45783;-63
2022/09/04 14:59:18;;;;;;;;;0.00;0.00;;;;;;;;5001374;28;45688;-63
2022/09/04 15:01:56;;;;;;;;;1.25;1.25;;;;;;;;5002036;28;45525;-62
2022/09/04 15:04:23;;;;;;;;;0.75;0.75;;;;;;;;5011686;28;45379;-62
2022/09/04 15:06:51;;;;;;;;;0.50;0.50;;;;;;;;5010401;28;45554;-62
2022/09/04 15:09:20;;;;;;;;;1.00;1.00;;;;;;;;5013215;28;45669;-62
2022/09/04 15:11:47;;;;;;;;;1.25;1.25;;;;;;;;5009403;28;46890;-63
2022/09/04 15:14:34;;;;;;;;;1.75;1.75;;;;;;;;4995058;28;45321;-63
2022/09/04 15:17:05;;;;;;;;;1.75;1.75;;;;;;;;5004374;28;45359;-61
2022/09/04 15:19:30;;;;;;;;;0.00;0.00;;;;;;;;5000212;28;45470;-62
2022/09/04 15:21:58;;;;;;;;;1.00;1.00;;;;;;;;5001937;28;46004;-62
2022/09/04 15:24:26;;;;;;;;;2.25;2.25;;;;;;;;4998577;28;45503;-62
2022/09/04 15:27:11;;;;;;;;;1.50;1.50;;;;;;;;5007567;28;45594;-62
2022/09/04 15:29:44;;;;;;;;;0.75;0.75;;;;;;;;4999695;28;45571;-63
2022/09/04 15:32:09;;;;;;;;;3.50;2.00;;;;;;;;5006146;28;46009;-62
2022/09/04 15:34:35;;;;;;;;;0.00;0.00;;;;;;;;4998754;28;45426;-62
2022/09/04 15:37:07;;;;;;;;;1.00;1.00;;;;;;;;5001040;28;45376;-62
2022/09/04 15:39:43;;;;;;;;;1.25;1.25;;;;;;;;5002734;28;45608;-62
2022/09/04 15:42:09;;;;;;;;;0.75;0.75;;;;;;;;5001673;28;47053;-62
2022/09/04 15:44:40;;;;;;;;;0.75;0.75;;;;;;;;5000841;28;45233;-62
2022/09/04 15:47:18;;;;;;;;;1.00;0.00;;;;;;;;4991984;28;45316;-62
2022/09/04 15:49:55;;;;;;;;;1.50;1.50;;;;;;;;4999678;28;45408;-62
2022/09/04 15:52:23;;;;;;;;;1.00;0.00;;;;;;;;4995611;28;45518;-62
2022/09/04 15:55:02;;;;;;;;;0.00;0.00;;;;;;;;4998449;28;45892;-62
2022/09/04 15:57:34;;;;;;;;;0.50;0.50;;;;;;;;4998652;28;45496;-62
2022/09/04 16:00:02;;;;;;;;;1.00;1.00;;;;;;;;5001807;28;45428;-62
2022/09/04 16:02:36;;;;;;;;;2.50;2.50;;;;;;;;4991191;28;45369;-62
2022/09/04 16:05:02;;;;;;;;;1.75;0.75;;;;;;;;5003016;28;45465;-63
2022/09/04 16:07:38;;;;;;;;;2.00;2.00;;;;;;;;4998439;28;45458;-62
2022/09/04 16:10:09;;;;;;;;;1.50;1.50;;;;;;;;4997860;28;45306;-62
2022/09/04 16:12:38;;;;;;;;;1.75;1.75;;;;;;;;4996220;28;46097;-62
2022/09/04 16:15:06;;;;;;;;;2.25;2.25;;;;;;;;4996866;28;45928;-63
2022/09/04 16:17:37;;;;;;;;;2.00;2.00;;;;;;;;5004963;28;45582;-62
2022/09/04 16:20:03;;;;;;;;;2.50;2.00;;;;;;;;4995926;28;45457;-63
2022/09/04 16:22:33;;;;;;;;;0.00;0.00;;;;;;;;5000654;28;46883;-62
2022/09/04 16:25:08;;;;;;;;;0.75;0.75;;;;;;;;4997842;28;45470;-63
2022/09/04 16:27:39;;;;;;;;;1.00;1.00;;;;;;;;4995817;28;46700;-63
2022/09/04 16:30:04;;;;;;;;;0.00;0.00;;;;;;;;4996454;28;45332;-63
2022/09/04 16:32:32;;;;;;;;;0.00;0.00;;;;;;;;4998779;28;45539;-63
2022/09/04 16:35:00;;;;;;;;;1.50;1.50;;;;;;;;4998342;28;45474;-63
2022/09/04 16:37:33;;;;;;;;;3.75;3.75;;;;;;;;4995846;28;46606;-63
2022/09/04 16:39:59;;;;;;;;;1.25;1.25;;;;;;;;4997524;28;45535;-63
2022/09/04 16:42:27;;;;;;;;;0.00;0.00;;;;;;;;4994804;28;45565;-64
2022/09/04 16:44:52;;;;;;;;;1.00;1.00;;;;;;;;4993341;28;45665;-63
2022/09/04 16:47:35;;;;;;;;;1.75;1.75;;;;;;;;4992753;28;45572;-63
2022/09/04 16:50:22;;;;;;;;;0.00;0.00;;;;;;;;5004271;28;45480;-63
2022/09/04 16:53:05;;;;;;;;;2.75;1.75;;;;;;;;4997717;28;46402;-59
2022/09/04 16:55:38;;;;;;;;;0.00;0.00;;;;;;;;4997825;28;45634;-59
2022/09/04 16:58:11;;;;;;;;;0.25;0.25;;;;;;;;4998987;28;45345;-59
2022/09/04 17:00:57;;;;;;;;;0.00;0.00;;;;;;;;4999604;28;45342;-60
2022/09/04 17:03:24;;;;;;;;;2.00;2.00;;;;;;;;4993573;28;45507;-60
2022/09/04 17:05:52;;;;;;;;;0.50;0.50;;;;;;;;4997998;28;45501;-60
2022/09/04 17:08:17;;;;;;;;;4.00;1.00;;;;;;;;5005753;28;45450;-60
2022/09/04 17:10:49;;;;;;;;;1.00;1.00;;;;;;;;4999015;28;45394;-60
2022/09/04 17:13:28;;;;;;;;;2.25;0.75;;;;;;;;4992399;28;46011;-59
2022/09/04 17:16:05;;;;;;;;;2.00;1.00;;;;;;;;4995380;28;45497;-59
2022/09/04 17:18:31;;;;;;;;;2.00;2.00;;;;;;;;4998284;28;45477;-59
2022/09/04 17:20:56;;;;;;;;;2.50;1.50;;;;;;;;4998799;28;45395;-59
2022/09/04 17:23:31;;;;;;;;;1.20;1.20;;;;;;;;5001497;28;45700;-59
2022/09/04 17:26:05;;;;;;;;;1.75;1.75;;;;;;;;5001773;28;46001;-59
2022/09/04 17:28:37;;;;;;;;;1.50;1.50;;;;;;;;5000031;28;45504;-59
2022/09/04 17:31:16;;;;;;;;;0.75;0.75;;;;;;;;5001710;28;45271;-59
2022/09/04 17:33:54;;;;;;;;;0.00;0.00;;;;;;;;4996668;28;47063;-59
2022/09/04 17:36:40;;;;;;;;;2.00;2.00;;;;;;;;4997161;28;45473;-58
2022/09/04 17:39:09;;;;;;;;;1.00;1.00;;;;;;;;4999405;28;45645;-59
2022/09/04 17:41:54;;;;;;;;;0.75;0.75;;;;;;;;5003730;28;45657;-58
2022/09/04 17:44:30;;;;;;;;;1.75;1.75;;;;;;;;4998299;28;45506;-58
2022/09/04 17:47:10;;;;;;;;;2.50;2.50;;;;;;;;5003679;28;45248;-65
2022/09/04 17:49:39;;;;;;;;;1.75;1.75;;;;;;;;4992014;28;45478;-65
2022/09/04 17:52:07;;;;;;;;;1.00;1.00;;;;;;;;5000116;28;45708;-64
2022/09/04 17:54:37;;;;;;;;;0.75;0.75;;;;;;;;4995393;28;46221;-65
2022/09/04 17:57:21;;;;;;;;;1.75;0.75;;;;;;;;5000875;28;45511;-66
2022/09/04 17:59:54;;;;;;;;;1.00;1.00;;;;;;;;4995948;28;45558;-65
2022/09/04 18:02:24;;;;;;;;;1.00;1.00;;;;;;;;4995353;28;46056;-65
2022/09/04 18:04:56;;;;;;;;;1.25;1.25;;;;;;;;4994263;28;45347;-66
2022/09/04 18:07:30;;;;;;;;;1.00;1.00;;;;;;;;4991392;28;45710;-65
2022/09/04 18:10:07;;;;;;;;;2.75;2.75;;;;;;;;4997766;28;45404;-66
2022/09/04 18:12:36;;;;;;;;;0.00;0.00;;;;;;;;4999304;28;45261;-66
2022/09/04 18:15:08;;;;;;;;;0.00;0.00;;;;;;;;5001734;28;45277;-66
2022/09/04 18:17:43;;;;;;;;;0.25;0.25;;;;;;;;5005209;28;45499;-66
2022/09/04 18:20:09;;;;;;;;;2.00;2.00;;;;;;;;4993432;28;45530;-66
2022/09/04 18:22:41;;;;;;;;;1.25;1.25;;;;;;;;4995582;28;47045;-66
2022/09/04 18:25:15;;;;;;;;;1.00;1.00;;;;;;;;4999329;28;45531;-66
2022/09/04 18:27:55;;;;;;;;;1.00;1.00;;;;;;;;4997756;28;45398;-65
2022/09/04 18:30:22;;;;;;;;;0.00;0.00;;;;;;;;4996561;28;45367;-66
2022/09/04 18:32:51;;;;;;;;;1.50;1.50;;;;;;;;5000312;28;45564;-65
2022/09/04 18:35:16;;;;;;;;;2.50;2.50;;;;;;;;5003732;28;47203;-65
2022/09/04 18:37:42;;;;;;;;;3.00;1.00;;;;;;;;5006028;28;45445;-66
2022/09/04 18:40:27;;;;;;;;;2.00;2.00;;;;;;;;5005745;28;45394;-65
2022/09/04 18:43:13;;;;;;;;;1.75;1.75;;;;;;;;4996200;28;45772;-65
2022/09/04 18:45:41;;;;;;;;;2.00;2.00;;;;;;;;4994361;28;48183;-66
2022/09/04 18:48:08;;;;;;;;;2.00;2.00;;;;;;;;5001413;28;45510;-66
2022/09/04 18:50:42;;;;;;;;;2.50;1.75;;;;;;;;5002328;28;45703;-67
2022/09/04 18:53:12;;;;;;;;;1.50;1.50;;;;;;;;5005119;28;45356;-67
2022/09/04 18:55:40;;;;;;;;;2.00;2.00;;;;;;;;4996652;28;46228;-66
2022/09/04 18:58:11;;;;;;;;;2.50;2.50;;;;;;;;4999691;28;45567;-66
2022/09/04 19:00:51;;;;;;;;;3.00;3.00;;;;;;;;4999761;28;45727;-66
2022/09/04 19:03:19;;;;;;;;;4.00;2.00;;;;;;;;5006771;28;45447;-66
2022/09/04 19:05:46;;;;;;;;;3.00;3.00;;;;;;;;4995175;28;46474;-67
2022/09/04 19:08:22;;;;;;;;;3.00;3.00;;;;;;;;4995739;28;45979;-66
2022/09/04 19:10:51;;;;;;;;;4.75;2.75;;;;;;;;5012648;28;45418;-65
2022/09/04 19:13:28;;;;;;;;;2.33;2.33;;;;;;;;4990448;28;45546;-66
2022/09/04 19:15:58;;;;;;;;;2.75;2.75;;;;;;;;5000031;28;46907;-66
2022/09/04 19:18:53;;;;;;;;;2.50;2.50;;;;;;;;4991014;28;45474;-65
2022/09/04 19:21:21;;;;;;;;;2.75;2.75;;;;;;;;4975618;28;45624;-66
2022/09/04 19:24:10;;;;;;;;;2.50;2.00;;;;;;;;4996028;28;45515;-66
2022/09/04 19:26:40;;;;;;;;;3.25;3.25;;;;;;;;4987910;28;46238;-65
2022/09/04 19:29:05;;;;;;;;;1.50;1.50;;;;;;;;4997239;28;45589;-65
2022/09/04 19:31:30;;;;;;;;;3.60;2.80;;;;;;;;5001210;28;45459;-66
2022/09/04 19:33:58;;;;;;;;;1.20;1.20;;;;;;;;4996037;28;45360;-65
2022/09/04 19:36:32;;;;;;;;;3.50;1.75;;;;;;;;4987580;28;46129;-65
2022/09/04 19:38:57;;;;;;;;;4.25;3.50;;;;;;;;4995886;28;45412;-66
2022/09/04 19:41:25;;;;;;;;;2.00;2.00;;;;;;;;4997908;28;45670;-66
2022/09/04 19:43:59;;;;;;;;;3.50;3.50;;;;;;;;4994670;28;45539;-66
2022/09/04 19:46:33;;;;;;;;;1.75;1.75;;;;;;;;4994179;28;47154;-65
2022/09/04 19:49:01;;;;;;;;;2.00;2.00;;;;;;;;4990512;28;47108;-66
2022/09/04 19:51:40;;;;;;;;;2.00;2.00;;;;;;;;4998884;28;45432;-67
2022/09/04 19:54:10;;;;;;;;;4.33;2.00;;;;;;;;4996580;28;46856;-65
2022/09/04 19:56:35;;;;;;;;;1.25;1.25;;;;;;;;4995081;28;45482;-66
2022/09/04 19:59:11;;;;;;;;;0.50;0.50;;;;;;;;4994562;28;45503;-66
2022/09/04 20:01:43;;;;;;;;;1.00;1.00;;;;;;;;4994564;28;45640;-66
2022/09/04 20:04:10;;;;;;;;;4.00;3.00;;;;;;;;4992828;28;45516;-66
2022/09/04 20:06:38;;;;;;;;;3.00;3.00;;;;;;;;4992585;28;45531;-66
2022/09/04 20:09:06;;;;;;;;;3.00;3.00;;;;;;;;4997275;28;45655;-67
2022/09/04 20:11:33;;;;;;;;;3.00;2.00;;;;;;;;4996823;28;45733;-66
2022/09/04 20:14:06;;;;;;;;;2.25;2.25;;;;;;;;4996240;28;45423;-65
2022/09/04 20:16:54;;;;;;;;;0.00;0.00;;;;;;;;4993183;28;45484;-65
2022/09/04 20:19:25;;;;;;;;;2.67;2.67;;;;;;;;4995526;28;45475;-65
2022/09/04 20:22:04;;;;;;;;;0.75;0.75;;;;;;;;4995740;28;45529;-65
2022/09/04 20:24:42;;;;;;;;;2.33;2.33;;;;;;;;4999808;28;45619;-65
2022/09/04 20:27:14;;;;;;;;;2.00;2.00;;;;;;;;5001112;28;47220;-65
2022/09/04 20:29:50;;;;;;;;;2.75;2.00;;;;;;;;4994511;28;45447;-65
2022/09/04 20:32:27;;;;;;;;;3.67;3.67;;;;;;;;4997805;28;45601;-65
2022/09/04 20:35:31;;;;;;;;;2.33;2.33;;;;;;;;4998879;28;45490;-65
2022/09/04 20:38:01;;;;;;;;;2.00;2.00;;;;;;;;4957254;28;45500;-65
2022/09/04 20:40:29;;;;;;;;;3.33;2.00;;;;;;;;4956934;28;45642;-64
2022/09/04 20:43:00;;;;;;;;;2.00;2.00;;;;;;;;4980136;28;45958;-64
2022/09/04 20:45:29;;;;;;;;;2.00;2.00;;;;;;;;4997423;28;45473;-65
2022/09/04 20:48:24;;;;;;;;;2.00;2.00;;;;;;;;4999090;28;46222;-65
2022/09/04 20:50:51;;;;;;;;;5.67;3.33;;;;;;;;4992085;28;45522;-64
2022/09/04 20:53:16;;;;;;;;;1.67;1.67;;;;;;;;5001617;28;45797;-64
2022/09/04 20:56:02;;;;;;;;;2.33;2.33;;;;;;;;5000303;28;45829;-64
2022/09/04 20:58:49;;;;;;;;;2.00;2.00;;;;;;;;4996473;28;45423;-64
2022/09/04 21:01:17;;;;;;;;;1.33;1.33;;;;;;;;4997485;28;45465;-64
2022/09/04 21:03:43;;;;;;;;;1.00;1.00;;;;;;;;4998381;28;45639;-64
2022/09/04 21:06:23;;;;;;;;;2.33;2.00;;;;;;;;4999083;28;45318;-64
2022/09/04 21:09:07;;;;;;;;;3.00;3.00;;;;;;;;4995653;28;46828;-64
2022/09/04 21:11:35;;;;;;;;;2.00;2.00;;;;;;;;5001977;28;45425;-65
2022/09/04 21:14:08;;;;;;;;;2.00;2.00;;;;;;;;5005691;28;45444;-65
2022/09/04 21:16:52;;;;;;;;;0.33;0.33;;;;;;;;4999406;28;45477;-65
2022/09/04 21:19:26;;;;;;;;;1.00;1.00;;;;;;;;4997411;28;46115;-65
2022/09/04 21:22:06;;;;;;;;;2.33;2.33;;;;;;;;4999888;28;45868;-65
2022/09/04 21:24:40;;;;;;;;;4.00;2.33;;;;;;;;5000633;28;45553;-65
2022/09/04 21:27:06;;;;;;;;;7.00;2.67;;;;;;;;5002619;28;45652;-65
2022/09/04 21:29:55;;;;;;;;;2.25;2.25;;;;;;;;5000707;28;46025;-65